createdAt,value
2022-10-16T00:01:18.941Z,4.10
2022-10-16T00:03:49.210Z,5.77
2022-10-16T00:06:19.763Z,6.30
2022-10-16T00:08:48.760Z,4.43
2022-10-16T00:11:19.747Z,7.03
2022-10-16T00:13:49.337Z,4.63
2022-10-16T00:16:18.250Z,6.00
2022-10-16T00:18:48.329Z,5.07
2022-10-16T00:21:19.024Z,7.37
2022-10-16T00:23:47.439Z,7.77
2022-10-16T00:26:18.639Z,5.03
2022-10-16T00:28:49.227Z,7.00
2022-10-16T00:31:18.166Z,5.70
2022-10-16T00:33:46.413Z,4.30
2022-10-16T00:36:17.761Z,6.77
2022-10-16T00:38:46.413Z,5.00
2022-10-16T00:41:17.694Z,4.77
2022-10-16T00:43:48.050Z,6.67
2022-10-16T00:46:19.495Z,5.40
2022-10-16T00:48:52.502Z,5.63
2022-10-16T00:51:26.560Z,4.50
2022-10-16T00:53:54.971Z,5.20
2022-10-16T00:56:23.125Z,5.10
2022-10-16T00:58:51.305Z,5.20
2022-10-16T01:01:19.423Z,5.07
2022-10-16T01:03:47.943Z,7.17
2022-10-16T01:06:26.336Z,4.40
2022-10-16T01:09:06.618Z,4.70
2022-10-16T01:11:39.740Z,6.27
2022-10-16T01:14:17.876Z,3.83
2022-10-16T01:16:51.294Z,6.03
2022-10-16T01:19:28.387Z,7.87
2022-10-16T01:22:00.417Z,4.80
2022-10-16T01:24:35.035Z,4.70
2022-10-16T01:27:11.683Z,4.43
2022-10-16T01:29:47.128Z,4.83
2022-10-16T01:32:21.153Z,5.40
2022-10-16T01:34:53.096Z,4.30
2022-10-16T01:37:29.865Z,5.37
2022-10-16T01:40:02.358Z,6.03
2022-10-16T01:42:37.685Z,6.53
2022-10-16T01:45:08.899Z,4.10
2022-10-16T01:47:38.412Z,4.70
2022-10-16T01:50:08.857Z,4.03
2022-10-16T01:52:40.593Z,7.03
2022-10-16T01:55:12.042Z,7.97
2022-10-16T01:57:47.308Z,5.73
2022-10-16T02:00:16.456Z,5.13
2022-10-16T02:02:47.884Z,5.67
2022-10-16T02:05:22.080Z,5.30
2022-10-16T02:07:50.508Z,4.83
2022-10-16T02:10:19.423Z,5.37
2022-10-16T02:12:52.626Z,5.47
2022-10-16T02:15:20.964Z,5.50
2022-10-16T02:17:49.039Z,8.80
2022-10-16T02:20:17.298Z,5.60
2022-10-16T02:22:50.430Z,5.20
2022-10-16T02:25:24.102Z,4.77
2022-10-16T02:27:57.913Z,6.33
2022-10-16T02:30:29.947Z,5.83
2022-10-16T02:32:59.992Z,6.97
2022-10-16T02:35:29.759Z,5.10
2022-10-16T02:37:58.706Z,5.63
2022-10-16T02:40:27.925Z,4.40
2022-10-16T02:42:57.877Z,7.47
2022-10-16T02:45:26.464Z,6.13
2022-10-16T02:47:54.557Z,4.37
2022-10-16T02:50:23.216Z,7.17
2022-10-16T02:52:51.246Z,6.47
2022-10-16T02:55:19.595Z,5.80
2022-10-16T02:57:47.628Z,5.80
2022-10-16T03:00:19.358Z,5.50
2022-10-16T03:02:47.659Z,6.10
2022-10-16T03:05:16.228Z,5.10
2022-10-16T03:07:44.373Z,5.33
2022-10-16T03:10:12.514Z,4.93
2022-10-16T03:12:40.583Z,6.37
2022-10-16T03:15:09.722Z,3.93
2022-10-16T03:17:39.197Z,8.67
2022-10-16T03:20:08.237Z,6.30
2022-10-16T03:22:36.292Z,6.63
2022-10-16T03:25:04.590Z,6.37
2022-10-16T03:27:32.708Z,9.17
2022-10-16T03:30:00.752Z,7.23
2022-10-16T03:32:29.582Z,7.97
2022-10-16T03:34:59.145Z,8.77
2022-10-16T03:37:27.723Z,6.87
2022-10-16T03:39:55.980Z,8.20
2022-10-16T03:42:25.425Z,6.37
2022-10-16T03:44:53.521Z,6.23
2022-10-16T03:47:24.457Z,8.90
2022-10-16T03:49:52.900Z,8.80
2022-10-16T03:52:22.787Z,9.80
2022-10-16T03:54:50.878Z,6.77
2022-10-16T03:57:18.964Z,8.60
2022-10-16T03:59:47.042Z,8.90
2022-10-16T04:02:15.170Z,8.73
2022-10-16T04:04:43.259Z,14.20
2022-10-16T04:07:11.432Z,9.27
2022-10-16T04:09:40.899Z,12.30
2022-10-16T04:12:09.026Z,7.93
2022-10-16T04:14:37.166Z,8.30
2022-10-16T04:17:05.217Z,9.63
2022-10-16T04:19:33.242Z,10.93
2022-10-16T04:22:01.298Z,10.73
2022-10-16T04:24:29.346Z,11.90
2022-10-16T04:26:58.873Z,12.50
2022-10-16T04:29:26.968Z,13.53
2022-10-16T04:31:55.037Z,13.13
2022-10-16T04:34:23.199Z,14.50
2022-10-16T04:36:51.237Z,13.60
2022-10-16T04:39:19.409Z,16.97
2022-10-16T04:41:47.392Z,16.00
2022-10-16T04:44:17.042Z,14.80
2022-10-16T04:46:45.378Z,15.17
2022-10-16T04:49:13.438Z,15.30
2022-10-16T04:51:41.485Z,16.20
2022-10-16T04:54:10.748Z,12.47
2022-10-16T04:56:44.197Z,17.80
2022-10-16T04:59:12.352Z,19.30
2022-10-16T05:01:41.859Z,17.27
2022-10-16T05:04:10.021Z,20.53
2022-10-16T05:06:39.511Z,19.30
2022-10-16T05:09:07.809Z,18.87
2022-10-16T05:11:36.653Z,18.43
2022-10-16T05:14:04.839Z,18.67
2022-10-16T05:16:32.973Z,17.80
2022-10-16T05:19:26.338Z,19.23
2022-10-16T05:21:50.669Z,19.77
2022-10-16T05:24:18.877Z,19.20
2022-10-16T05:26:46.946Z,20.53
2022-10-16T05:29:15.047Z,20.37
2022-10-16T05:31:43.105Z,19.43
2022-10-16T05:34:12.598Z,26.63
2022-10-16T05:36:40.632Z,19.13
2022-10-16T05:39:08.731Z,18.47
2022-10-16T05:41:36.789Z,21.37
2022-10-16T05:44:07.513Z,20.57
2022-10-16T05:46:35.780Z,19.90
2022-10-16T05:49:03.812Z,19.37
2022-10-16T05:51:33.640Z,17.77
2022-10-16T05:54:01.689Z,20.83
2022-10-16T05:56:30.118Z,18.83
2022-10-16T05:58:58.214Z,18.53
2022-10-16T06:01:26.361Z,18.90
2022-10-16T06:03:54.692Z,18.93
2022-10-16T06:06:25.071Z,18.43
2022-10-16T06:08:56.084Z,18.53
2022-10-16T06:11:26.386Z,18.27
2022-10-16T06:13:57.590Z,18.50
2022-10-16T06:16:26.606Z,17.17
2022-10-16T06:18:55.461Z,16.97
2022-10-16T06:21:26.773Z,17.13
2022-10-16T06:23:57.025Z,17.63
2022-10-16T06:26:26.616Z,17.30
2022-10-16T06:28:58.641Z,17.43
2022-10-16T06:31:28.571Z,16.50
2022-10-16T06:33:57.609Z,17.17
2022-10-16T06:36:26.361Z,15.90
2022-10-16T06:38:55.935Z,16.30
2022-10-16T06:41:25.333Z,16.20
2022-10-16T06:43:53.541Z,15.87
2022-10-16T06:46:24.476Z,16.90
2022-10-16T06:48:52.655Z,15.90
2022-10-16T06:51:21.673Z,15.57
2022-10-16T06:54:06.657Z,20.20
2022-10-16T06:56:36.801Z,16.57
2022-10-16T06:59:05.961Z,16.50
2022-10-16T07:01:35.348Z,16.43
2022-10-16T07:04:04.143Z,15.87
2022-10-16T07:06:34.787Z,14.70
2022-10-16T07:09:06.081Z,15.30
2022-10-16T07:11:36.233Z,16.90
2022-10-16T07:14:04.662Z,15.30
2022-10-16T07:16:34.725Z,16.43
2022-10-16T07:19:04.323Z,13.53
2022-10-16T07:21:37.023Z,14.40
2022-10-16T07:24:07.909Z,14.17
2022-10-16T07:26:40.119Z,14.47
2022-10-16T07:29:09.572Z,13.33
2022-10-16T07:31:39.450Z,13.50
2022-10-16T07:34:07.650Z,12.80
2022-10-16T07:36:35.857Z,13.53
2022-10-16T07:39:04.032Z,13.80
2022-10-16T07:41:33.718Z,12.50
2022-10-16T07:44:03.194Z,12.20
2022-10-16T07:46:31.904Z,12.40
2022-10-16T07:48:59.985Z,17.50
2022-10-16T07:51:28.578Z,13.63
2022-10-16T07:53:56.996Z,12.20
2022-10-16T07:56:25.533Z,12.37
2022-10-16T07:58:53.677Z,11.50
2022-10-16T08:01:23.148Z,13.50
2022-10-16T08:03:53.141Z,11.67
2022-10-16T08:06:26.834Z,11.47
2022-10-16T08:08:56.921Z,10.60
2022-10-16T08:11:25.476Z,10.47
2022-10-16T08:13:53.604Z,9.93
2022-10-16T08:16:23.352Z,9.53
2022-10-16T08:18:52.508Z,8.67
2022-10-16T08:21:23.631Z,7.47
2022-10-16T08:23:56.686Z,9.30
2022-10-16T08:26:28.008Z,13.90
2022-10-16T08:28:56.469Z,7.10
2022-10-16T08:31:27.248Z,8.03
2022-10-16T08:33:55.669Z,9.63
2022-10-16T08:36:23.937Z,6.83
2022-10-16T08:38:55.148Z,6.60
2022-10-16T08:41:58.956Z,7.13
2022-10-16T08:44:51.602Z,7.60
2022-10-16T08:47:24.980Z,6.20
2022-10-16T08:49:58.949Z,5.77
2022-10-16T08:52:31.314Z,4.93
2022-10-16T08:54:59.595Z,7.73
2022-10-16T08:57:28.415Z,5.00
2022-10-16T09:00:01.242Z,6.80
2022-10-16T09:02:34.269Z,5.43
2022-10-16T09:05:20.688Z,5.80
2022-10-16T09:07:57.580Z,5.80
2022-10-16T09:10:37.978Z,5.77
2022-10-16T09:13:19.507Z,5.30
2022-10-16T09:15:55.131Z,5.50
2022-10-16T09:18:32.738Z,3.83
2022-10-16T09:21:07.579Z,6.10
2022-10-16T09:23:38.215Z,5.50
2022-10-16T09:26:10.117Z,6.47
2022-10-16T09:28:38.359Z,6.20
2022-10-16T09:31:06.748Z,4.87
2022-10-16T09:33:41.180Z,4.63
2022-10-16T09:36:10.276Z,4.87
2022-10-16T09:38:38.929Z,6.20
2022-10-16T09:41:19.626Z,9.50
2022-10-16T09:43:55.697Z,5.43
2022-10-16T09:46:29.664Z,4.00
2022-10-16T09:49:00.905Z,5.27
2022-10-16T09:51:31.328Z,5.17
2022-10-16T09:54:01.873Z,4.40
2022-10-16T09:56:31.642Z,4.67
2022-10-16T09:59:01.428Z,6.43
2022-10-16T10:01:37.289Z,7.60
2022-10-16T10:04:07.923Z,4.87
2022-10-16T10:06:39.029Z,3.90
2022-10-16T10:09:17.414Z,5.67
2022-10-16T10:11:51.582Z,5.83
2022-10-16T10:14:23.599Z,7.17
2022-10-16T10:16:53.181Z,4.00
2022-10-16T10:19:26.132Z,4.23
2022-10-16T10:21:56.256Z,3.53
2022-10-16T10:24:24.454Z,6.03
2022-10-16T10:27:00.157Z,5.00
2022-10-16T10:29:39.201Z,4.13
2022-10-16T10:32:20.552Z,6.10
2022-10-16T10:35:08.230Z,4.80
2022-10-16T10:38:04.503Z,4.77
2022-10-16T10:40:41.978Z,4.17
2022-10-16T10:43:22.613Z,5.37
2022-10-16T10:45:57.309Z,4.83
2022-10-16T10:48:56.664Z,4.13
2022-10-16T10:51:33.858Z,5.90
2022-10-16T10:54:11.960Z,4.50
2022-10-16T10:56:49.492Z,4.37
2022-10-16T10:59:46.145Z,4.47
2022-10-16T11:02:21.226Z,3.43
2022-10-16T11:05:14.467Z,4.87
2022-10-16T11:07:49.376Z,3.37
2022-10-16T11:10:21.375Z,7.43
2022-10-16T11:12:53.706Z,4.30
2022-10-16T11:15:26.550Z,4.93
2022-10-16T11:17:57.908Z,4.50
2022-10-16T11:20:30.045Z,4.70
2022-10-16T11:23:07.251Z,5.07
2022-10-16T11:25:35.913Z,5.43
2022-10-16T11:28:10.744Z,3.10
2022-10-16T11:30:47.204Z,4.63
2022-10-16T11:33:32.472Z,5.83
2022-10-16T11:36:08.508Z,4.63
2022-10-16T11:38:45.476Z,6.40
2022-10-16T11:41:22.534Z,5.20
2022-10-16T11:44:00.650Z,3.80
2022-10-16T11:46:31.232Z,5.67
2022-10-16T11:49:05.569Z,4.63
2022-10-16T11:51:38.846Z,6.57
2022-10-16T11:54:16.952Z,5.60
2022-10-16T11:56:48.827Z,6.27
2022-10-16T11:59:26.136Z,4.60
2022-10-16T12:02:01.129Z,4.23
2022-10-16T12:04:36.587Z,3.97
2022-10-16T12:07:09.132Z,5.37
2022-10-16T12:09:41.244Z,7.57
2022-10-16T12:12:29.178Z,5.13
2022-10-16T12:15:19.646Z,5.37
2022-10-16T12:17:51.034Z,6.70
2022-10-16T12:20:31.279Z,5.77
2022-10-16T12:23:04.860Z,6.47
2022-10-16T12:25:36.416Z,7.97
2022-10-16T12:28:07.463Z,3.90
2022-10-16T12:30:37.896Z,4.10
2022-10-16T12:33:08.085Z,4.60
2022-10-16T12:35:45.337Z,9.13
2022-10-16T12:38:20.255Z,5.80
2022-10-16T12:40:58.847Z,8.10
2022-10-16T12:43:39.122Z,4.77
2022-10-16T12:46:23.366Z,4.67
2022-10-16T12:49:05.925Z,8.17
2022-10-16T12:51:37.750Z,7.03
2022-10-16T12:54:13.618Z,9.57
2022-10-16T12:56:54.625Z,4.60
2022-10-16T12:59:33.315Z,6.87
2022-10-16T13:02:37.041Z,5.90
2022-10-16T13:05:20.340Z,6.60
2022-10-16T13:08:01.965Z,3.73
2022-10-16T13:10:40.737Z,4.30
2022-10-16T13:13:25.998Z,9.03
2022-10-16T13:16:05.231Z,7.10
2022-10-16T13:18:42.322Z,4.40
2022-10-16T13:21:24.994Z,6.70
2022-10-16T13:24:02.633Z,7.00
2022-10-16T13:26:42.414Z,5.77
2022-10-16T13:29:12.069Z,5.03
2022-10-16T13:31:41.113Z,6.57
2022-10-16T13:34:16.204Z,5.50
2022-10-16T13:36:51.164Z,3.93
2022-10-16T13:39:24.918Z,4.43
2022-10-16T13:42:09.091Z,5.10
2022-10-16T13:44:43.612Z,4.23
2022-10-16T13:47:18.808Z,7.03
2022-10-16T13:49:47.370Z,6.23
2022-10-16T13:52:20.794Z,3.70
2022-10-16T13:54:49.150Z,5.17
2022-10-16T13:57:33.342Z,4.77
2022-10-16T14:00:02.838Z,4.23
2022-10-16T14:02:37.728Z,6.57
2022-10-16T14:05:11.009Z,4.37
2022-10-16T14:07:39.896Z,6.53
2022-10-16T14:10:22.582Z,8.30
2022-10-16T14:12:58.048Z,5.00
2022-10-16T14:15:27.757Z,5.63
2022-10-16T14:17:56.448Z,4.20
2022-10-16T14:20:28.908Z,7.50
2022-10-16T14:23:02.816Z,3.60
2022-10-16T14:25:33.144Z,5.13
2022-10-16T14:28:04.844Z,6.27
2022-10-16T14:30:36.897Z,6.20
2022-10-16T14:33:07.254Z,4.20
2022-10-16T14:35:38.458Z,4.43
2022-10-16T14:38:07.888Z,4.17
2022-10-16T14:40:38.892Z,4.97
2022-10-16T14:43:07.262Z,5.43
2022-10-16T14:45:37.927Z,6.83
2022-10-16T14:48:19.562Z,6.83
2022-10-16T14:50:48.261Z,6.33
2022-10-16T14:53:16.564Z,5.63
2022-10-16T14:55:45.435Z,6.77
2022-10-16T14:58:17.096Z,9.70
2022-10-16T15:00:46.600Z,5.50
2022-10-16T15:03:15.084Z,4.30
2022-10-16T15:05:43.149Z,5.97
2022-10-16T15:08:11.200Z,4.60
2022-10-16T15:10:42.514Z,6.00
2022-10-16T15:13:16.026Z,4.77
2022-10-16T15:15:47.254Z,5.37
2022-10-16T15:18:20.849Z,5.77
2022-10-16T15:20:50.920Z,4.23
2022-10-16T15:23:21.162Z,6.60
2022-10-16T15:25:50.647Z,4.63
2022-10-16T15:28:20.378Z,6.60
2022-10-16T15:30:53.221Z,3.90
2022-10-16T15:33:23.849Z,6.10
2022-10-16T15:35:53.349Z,6.50
2022-10-16T15:38:22.806Z,5.63
2022-10-16T15:40:51.379Z,4.63
2022-10-16T15:43:19.725Z,5.50
2022-10-16T15:46:01.210Z,5.30
2022-10-16T15:48:29.585Z,4.60
2022-10-16T15:50:57.638Z,4.60
2022-10-16T15:53:25.786Z,6.47
2022-10-16T15:55:53.843Z,6.90
2022-10-16T15:58:21.918Z,7.93
2022-10-16T16:00:58.671Z,3.50
2022-10-16T16:03:26.808Z,5.50
2022-10-16T16:05:55.104Z,7.70
2022-10-16T16:08:23.702Z,6.00
2022-10-16T16:11:00.889Z,9.93
2022-10-16T16:13:29.271Z,14.00
2022-10-16T16:15:58.812Z,7.10
2022-10-16T16:18:26.986Z,7.43
2022-10-16T16:20:55.752Z,9.63
2022-10-16T16:23:24.247Z,7.37
2022-10-16T16:26:06.660Z,6.90
2022-10-16T16:28:35.049Z,9.73
2022-10-16T16:31:04.716Z,7.30
2022-10-16T16:33:33.364Z,7.10
2022-10-16T16:36:02.881Z,6.50
2022-10-16T16:38:31.420Z,6.97
2022-10-16T16:40:59.562Z,7.57
2022-10-16T16:43:28.637Z,6.83
2022-10-16T16:45:57.200Z,7.27
2022-10-16T16:48:26.826Z,11.70
2022-10-16T16:50:55.171Z,9.17
2022-10-16T16:53:23.677Z,9.27
2022-10-16T16:55:51.997Z,7.43
2022-10-16T16:58:20.172Z,11.80
2022-10-16T17:00:56.655Z,14.90
2022-10-16T17:03:26.774Z,13.73
2022-10-16T17:05:59.391Z,17.73
2022-10-16T17:08:27.706Z,16.67
2022-10-16T17:10:56.114Z,13.50
2022-10-16T17:13:24.703Z,12.53
2022-10-16T17:15:54.074Z,13.20
2022-10-16T17:18:24.058Z,11.63
2022-10-16T17:20:54.142Z,15.13
2022-10-16T17:23:22.327Z,13.43
2022-10-16T17:25:50.500Z,14.40
2022-10-16T17:28:18.705Z,15.43
2022-10-16T17:30:47.247Z,15.43
2022-10-16T17:33:15.807Z,16.77
2022-10-16T17:35:45.812Z,14.80
2022-10-16T17:38:16.808Z,12.80
2022-10-16T17:40:44.966Z,14.40
2022-10-16T17:43:13.132Z,14.77
2022-10-16T17:45:41.307Z,13.20
2022-10-16T17:48:09.537Z,12.47
2022-10-16T17:50:41.451Z,18.20
2022-10-16T17:53:12.504Z,18.93
2022-10-16T17:55:43.093Z,13.40
2022-10-16T17:58:11.395Z,13.30
2022-10-16T18:00:39.769Z,12.77
2022-10-16T18:03:08.046Z,16.00
2022-10-16T18:05:39.374Z,15.07
2022-10-16T18:08:07.640Z,11.37
2022-10-16T18:10:35.867Z,12.57
2022-10-16T18:13:05.354Z,13.63
2022-10-16T18:15:33.615Z,12.67
2022-10-16T18:18:01.806Z,12.50
2022-10-16T18:20:29.987Z,12.90
2022-10-16T18:22:58.422Z,15.07
2022-10-16T18:25:26.735Z,15.67
2022-10-16T18:27:55.522Z,14.17
2022-10-16T18:30:25.092Z,13.13
2022-10-16T18:32:53.718Z,18.13
2022-10-16T18:35:21.913Z,17.07
2022-10-16T18:37:50.226Z,18.97
2022-10-16T18:40:18.666Z,22.53
2022-10-16T18:42:46.864Z,17.30
2022-10-16T18:45:15.140Z,15.33
2022-10-16T18:47:44.763Z,16.73
2022-10-16T18:50:13.455Z,16.17
2022-10-16T18:52:48.831Z,17.83
2022-10-16T18:55:17.659Z,32.80
2022-10-16T18:57:45.789Z,30.27
2022-10-16T19:00:14.500Z,22.97
2022-10-16T19:02:44.146Z,17.57
2022-10-16T19:05:15.625Z,23.70
2022-10-16T19:07:47.157Z,18.83
2022-10-16T19:10:15.377Z,24.80
2022-10-16T19:12:44.827Z,20.90
2022-10-16T19:15:12.979Z,20.47
2022-10-16T19:17:41.082Z,20.37
2022-10-16T19:20:11.353Z,25.07
2022-10-16T19:22:54.052Z,26.20
2022-10-16T19:25:22.981Z,26.47
2022-10-16T19:27:51.389Z,24.97
2022-10-16T19:30:20.196Z,24.47
2022-10-16T19:32:49.561Z,25.50
2022-10-16T19:35:19.156Z,27.93
2022-10-16T19:37:50.664Z,32.37
2022-10-16T19:40:18.881Z,31.80
2022-10-16T19:42:48.782Z,30.70
2022-10-16T19:45:17.040Z,27.73
2022-10-16T19:47:45.850Z,30.20
2022-10-16T19:50:16.224Z,27.93
2022-10-16T19:52:48.411Z,28.17
2022-10-16T19:55:19.326Z,27.70
2022-10-16T19:57:47.729Z,26.47
2022-10-16T20:00:17.645Z,27.50
2022-10-16T20:02:45.993Z,26.17
2022-10-16T20:05:14.073Z,25.17
2022-10-16T20:07:42.191Z,21.97
2022-10-16T20:10:12.198Z,21.10
2022-10-16T20:12:40.356Z,19.97
2022-10-16T20:15:09.762Z,23.30
2022-10-16T20:17:37.882Z,19.20
2022-10-16T20:20:06.587Z,22.43
2022-10-16T20:22:34.700Z,17.80
2022-10-16T20:25:05.953Z,17.40
2022-10-16T20:27:39.327Z,17.40
2022-10-16T20:30:08.531Z,17.77
2022-10-16T20:32:36.585Z,19.50
2022-10-16T20:35:07.191Z,17.53
2022-10-16T20:37:36.214Z,19.80
2022-10-16T20:40:04.526Z,17.07
2022-10-16T20:42:32.896Z,17.27
2022-10-16T20:45:02.367Z,18.17
2022-10-16T20:47:30.537Z,16.97
2022-10-16T20:49:58.643Z,17.53
2022-10-16T20:52:27.117Z,19.10
2022-10-16T20:54:55.228Z,19.50
2022-10-16T20:57:23.404Z,20.10
2022-10-16T20:59:55.458Z,17.40
2022-10-16T21:02:24.958Z,17.50
2022-10-16T21:04:53.118Z,16.00
2022-10-16T21:07:21.199Z,15.87
2022-10-16T21:09:50.818Z,14.83
2022-10-16T21:12:19.027Z,14.60
2022-10-16T21:15:13.014Z,14.50
2022-10-16T21:17:36.575Z,12.87
2022-10-16T21:20:05.093Z,13.53
2022-10-16T21:22:33.159Z,12.33
2022-10-16T21:25:01.231Z,13.00
2022-10-16T21:27:29.305Z,15.73
2022-10-16T21:29:57.353Z,12.67
2022-10-16T21:32:25.647Z,11.83
2022-10-16T21:34:55.374Z,12.10
2022-10-16T21:37:23.445Z,18.70
2022-10-16T21:39:51.651Z,12.33
2022-10-16T21:42:19.758Z,11.47
2022-10-16T21:44:47.936Z,15.63
2022-10-16T21:47:16.011Z,11.77
2022-10-16T21:49:44.074Z,14.50
2022-10-16T21:52:13.690Z,11.23
2022-10-16T21:54:41.971Z,10.23
2022-10-16T21:57:10.037Z,11.53
2022-10-16T21:59:38.105Z,13.03
2022-10-16T22:02:06.643Z,12.70
2022-10-16T22:04:35.130Z,12.00
2022-10-16T22:07:03.251Z,11.60
2022-10-16T22:09:32.837Z,11.23
2022-10-16T22:12:00.911Z,9.80
2022-10-16T22:14:29.018Z,11.67
2022-10-16T22:16:57.297Z,11.43
2022-10-16T22:19:25.735Z,9.87
2022-10-16T22:21:57.372Z,10.47
2022-10-16T22:24:25.902Z,11.13
2022-10-16T22:26:55.441Z,13.23
2022-10-16T22:29:23.664Z,15.03
2022-10-16T22:31:52.616Z,11.50
2022-10-16T22:34:20.874Z,10.23
2022-10-16T22:36:50.783Z,11.00
2022-10-16T22:39:19.283Z,13.07
2022-10-16T22:41:47.430Z,9.60
2022-10-16T22:44:16.898Z,12.30
2022-10-16T22:46:44.964Z,10.37
2022-10-16T22:49:13.076Z,9.00
2022-10-16T22:51:41.203Z,11.43
2022-10-16T22:54:09.392Z,12.23
2022-10-16T22:56:37.569Z,11.30
2022-10-16T22:59:05.836Z,10.80
2022-10-16T23:01:37.527Z,9.63
2022-10-16T23:04:06.219Z,9.67
2022-10-16T23:06:34.467Z,10.77
2022-10-16T23:09:04.101Z,10.33
2022-10-16T23:11:32.540Z,9.43
2022-10-16T23:14:00.836Z,10.63
2022-10-16T23:16:29.100Z,12.27
2022-10-16T23:18:59.798Z,9.97
2022-10-16T23:21:28.445Z,12.10
2022-10-16T23:23:56.796Z,11.00
2022-10-16T23:26:27.188Z,9.80
2022-10-16T23:28:58.085Z,10.47
2022-10-16T23:31:27.459Z,9.70
2022-10-16T23:33:58.491Z,11.90
2022-10-16T23:36:27.051Z,9.10
2022-10-16T23:38:55.745Z,12.13
2022-10-16T23:41:24.039Z,9.67
2022-10-16T23:43:52.538Z,8.20
2022-10-16T23:46:20.762Z,8.47
2022-10-16T23:48:48.978Z,10.97
2022-10-16T23:51:18.526Z,8.77
2022-10-16T23:53:46.831Z,8.67
2022-10-16T23:56:15.444Z,9.10
2022-10-16T23:58:43.799Z,9.43
